createdAt,value
2018-06-09T00:00:19.007Z,17.65
2018-06-09T00:01:18.761Z,17.59
2018-06-09T00:03:12.445Z,17.66
2018-06-09T00:04:12.351Z,17.71
2018-06-09T00:06:05.203Z,17.65
2018-06-09T00:07:05.074Z,17.57
2018-06-09T00:08:58.020Z,17.59
2018-06-09T00:09:57.931Z,17.56
2018-06-09T00:11:50.903Z,17.56
2018-06-09T00:12:50.783Z,17.56
2018-06-09T00:14:43.759Z,17.54
2018-06-09T00:15:43.631Z,17.46
2018-06-09T00:17:36.492Z,17.43
2018-06-09T00:18:36.417Z,17.30
2018-06-09T00:20:29.234Z,17.28
2018-06-09T00:21:29.141Z,17.28
2018-06-09T00:23:22.022Z,17.27
2018-06-09T00:24:21.877Z,17.32
2018-06-09T00:26:14.738Z,17.32
2018-06-09T00:27:14.628Z,17.20
2018-06-09T00:29:07.517Z,17.28
2018-06-09T00:30:07.439Z,17.28
2018-06-09T00:32:00.221Z,17.30
2018-06-09T00:33:00.137Z,17.25
2018-06-09T00:34:53.020Z,17.24
2018-06-09T00:35:52.882Z,17.09
2018-06-09T00:37:45.726Z,17.17
2018-06-09T00:38:45.633Z,17.16
2018-06-09T00:40:38.499Z,17.06
2018-06-09T00:41:38.391Z,17.12
2018-06-09T00:43:31.226Z,17.09
2018-06-09T00:44:31.126Z,17.09
2018-06-09T00:46:23.994Z,17.06
2018-06-09T00:47:23.890Z,17.02
2018-06-09T00:49:16.742Z,17.01
2018-06-09T00:50:16.670Z,17.07
2018-06-09T00:52:10.958Z,17.12
2018-06-09T00:53:10.831Z,16.97
2018-06-09T00:55:03.657Z,17.02
2018-06-09T00:56:03.573Z,16.97
2018-06-09T00:57:56.422Z,17.10
2018-06-09T00:58:56.315Z,17.02
2018-06-09T01:00:49.197Z,17.07
2018-06-09T01:01:49.067Z,17.06
2018-06-09T01:03:41.938Z,17.02
2018-06-09T01:04:41.810Z,17.01
2018-06-09T01:06:34.544Z,16.92
2018-06-09T01:07:34.485Z,16.97
2018-06-09T01:09:27.337Z,17.02
2018-06-09T01:10:27.212Z,17.04
2018-06-09T01:12:20.083Z,16.97
2018-06-09T01:13:19.956Z,17.01
2018-06-09T01:15:13.327Z,16.99
2018-06-09T01:16:12.708Z,17.07
2018-06-09T01:18:05.562Z,17.04
2018-06-09T01:19:05.463Z,16.92
2018-06-09T01:20:58.333Z,16.84
2018-06-09T01:21:58.202Z,16.84
2018-06-09T01:23:51.059Z,16.87
2018-06-09T01:24:50.952Z,16.87
2018-06-09T01:26:43.838Z,16.84
2018-06-09T01:27:43.702Z,16.82
2018-06-09T01:29:36.455Z,16.76
2018-06-09T01:30:36.355Z,16.73
2018-06-09T01:32:29.213Z,16.79
2018-06-09T01:33:29.103Z,16.73
2018-06-09T01:35:21.976Z,16.73
2018-06-09T01:36:21.854Z,16.74
2018-06-09T01:38:14.720Z,16.74
2018-06-09T01:39:14.594Z,16.73
2018-06-09T01:41:07.457Z,16.59
2018-06-09T01:42:07.352Z,16.61
2018-06-09T01:44:00.223Z,16.65
2018-06-09T01:45:00.116Z,16.62
2018-06-09T01:46:52.955Z,16.70
2018-06-09T01:47:52.839Z,16.65
2018-06-09T01:49:45.732Z,16.69
2018-06-09T01:50:45.593Z,16.62
2018-06-09T01:52:38.441Z,16.55
2018-06-09T01:53:38.357Z,16.61
2018-06-09T01:55:31.254Z,16.55
2018-06-09T01:56:31.113Z,16.49
2018-06-09T01:58:23.932Z,16.52
2018-06-09T01:59:23.846Z,16.55
2018-06-09T02:01:16.750Z,16.52
2018-06-09T02:02:16.600Z,16.43
2018-06-09T02:04:09.436Z,16.54
2018-06-09T02:05:09.338Z,16.54
2018-06-09T02:07:02.205Z,16.54
2018-06-09T02:08:02.108Z,16.42
2018-06-09T02:09:54.937Z,16.36
2018-06-09T02:10:54.855Z,16.39
2018-06-09T02:12:47.750Z,16.34
2018-06-09T02:13:47.599Z,16.33
2018-06-09T02:15:40.358Z,16.37
2018-06-09T02:16:40.248Z,16.42
2018-06-09T02:18:33.101Z,16.34
2018-06-09T02:19:32.992Z,16.22
2018-06-09T02:21:25.841Z,16.17
2018-06-09T02:22:25.754Z,16.13
2018-06-09T02:24:18.625Z,16.18
2018-06-09T02:25:18.488Z,16.17
2018-06-09T02:27:11.343Z,16.18
2018-06-09T02:28:11.247Z,16.17
2018-06-09T02:30:04.084Z,16.21
2018-06-09T02:31:03.989Z,16.17
2018-06-09T02:32:57.237Z,16.14
2018-06-09T02:33:57.145Z,16.13
2018-06-09T02:35:50.018Z,16.14
2018-06-09T02:36:49.899Z,16.06
2018-06-09T02:38:42.735Z,16.10
2018-06-09T02:39:42.640Z,16.22
2018-06-09T02:41:35.534Z,16.09
2018-06-09T02:42:35.399Z,16.16
2018-06-09T02:44:28.264Z,16.18
2018-06-09T02:45:28.145Z,16.16
2018-06-09T02:47:22.458Z,16.10
2018-06-09T02:48:22.338Z,16.06
2018-06-09T02:50:15.165Z,15.99
2018-06-09T02:51:15.067Z,15.96
2018-06-09T02:53:07.944Z,16.08
2018-06-09T02:54:07.855Z,15.98
2018-06-09T02:56:00.580Z,16.13
2018-06-09T02:57:00.480Z,16.09
2018-06-09T02:58:53.350Z,16.00
2018-06-09T02:59:53.236Z,16.02
2018-06-09T03:01:47.021Z,16.09
2018-06-09T03:02:46.894Z,16.03
2018-06-09T03:04:39.830Z,15.90
2018-06-09T03:05:39.650Z,15.90
2018-06-09T03:07:32.503Z,16.00
2018-06-09T03:08:32.408Z,16.00
2018-06-09T03:10:25.262Z,16.06
2018-06-09T03:11:25.140Z,15.96
2018-06-09T03:13:17.999Z,16.00
2018-06-09T03:14:17.888Z,15.99
2018-06-09T03:16:10.678Z,16.00
2018-06-09T03:17:10.541Z,16.10
2018-06-09T03:19:03.377Z,16.21
2018-06-09T03:20:03.299Z,16.26
2018-06-09T03:21:56.069Z,16.17
2018-06-09T03:22:55.938Z,16.21
2018-06-09T03:24:48.775Z,16.24
2018-06-09T03:25:48.691Z,16.13
2018-06-09T03:27:41.480Z,16.10
2018-06-09T03:28:41.358Z,16.09
2018-06-09T03:30:34.176Z,16.14
2018-06-09T03:31:34.076Z,16.14
2018-06-09T03:33:26.870Z,16.18
2018-06-09T03:34:26.747Z,16.26
2018-06-09T03:36:19.591Z,16.42
2018-06-09T03:37:19.492Z,16.47
2018-06-09T03:39:12.347Z,16.42
2018-06-09T03:40:12.250Z,16.47
2018-06-09T03:42:05.015Z,16.39
2018-06-09T03:43:04.905Z,16.42
2018-06-09T03:44:57.727Z,16.36
2018-06-09T03:45:57.639Z,16.36
2018-06-09T03:47:50.380Z,16.51
2018-06-09T03:48:50.327Z,16.58
2018-06-09T03:50:43.147Z,16.59
2018-06-09T03:51:43.069Z,16.59
2018-06-09T03:53:35.777Z,16.57
2018-06-09T03:54:35.690Z,16.61
2018-06-09T03:56:29.495Z,16.72
2018-06-09T03:57:29.353Z,16.74
2018-06-09T03:59:22.185Z,16.83
2018-06-09T04:00:22.090Z,16.83
2018-06-09T04:02:14.973Z,16.91
2018-06-09T04:03:14.844Z,16.95
2018-06-09T04:05:07.708Z,16.91
2018-06-09T04:06:07.618Z,17.01
2018-06-09T04:08:00.379Z,17.09
2018-06-09T04:09:00.243Z,17.09
2018-06-09T04:10:53.077Z,17.07
2018-06-09T04:11:52.985Z,17.10
2018-06-09T04:13:45.845Z,17.13
2018-06-09T04:14:45.761Z,17.09
2018-06-09T04:16:38.578Z,17.17
2018-06-09T04:17:38.495Z,17.27
2018-06-09T04:19:31.248Z,17.25
2018-06-09T04:20:31.152Z,17.31
2018-06-09T04:22:24.488Z,17.38
2018-06-09T04:23:23.875Z,17.39
2018-06-09T04:25:16.749Z,17.53
2018-06-09T04:26:16.639Z,17.53
2018-06-09T04:28:09.377Z,17.53
2018-06-09T04:29:09.286Z,17.57
2018-06-09T04:31:02.161Z,17.62
2018-06-09T04:32:02.076Z,17.63
2018-06-09T04:33:55.406Z,17.68
2018-06-09T04:34:54.681Z,17.65
2018-06-09T04:36:47.552Z,17.76
2018-06-09T04:37:47.428Z,17.83
2018-06-09T04:39:40.267Z,17.86
2018-06-09T04:40:40.183Z,17.88
2018-06-09T04:42:33.042Z,17.84
2018-06-09T04:43:32.921Z,17.84
2018-06-09T04:45:26.297Z,17.91
2018-06-09T04:46:26.199Z,17.91
2018-06-09T04:48:19.070Z,17.84
2018-06-09T04:49:18.940Z,17.86
2018-06-09T04:51:11.781Z,17.94
2018-06-09T04:52:11.697Z,17.88
2018-06-09T04:54:04.541Z,17.99
2018-06-09T04:55:04.446Z,18.08
2018-06-09T04:56:57.298Z,18.13
2018-06-09T04:57:57.183Z,18.20
2018-06-09T04:59:50.611Z,18.26
2018-06-09T05:00:49.931Z,18.30
2018-06-09T05:02:42.771Z,18.41
2018-06-09T05:03:42.691Z,18.39
2018-06-09T05:05:35.548Z,18.42
2018-06-09T05:06:35.433Z,18.52
2018-06-09T05:08:28.284Z,18.57
2018-06-09T05:09:28.204Z,18.61
2018-06-09T05:11:21.558Z,18.68
2018-06-09T05:12:20.942Z,18.78
2018-06-09T05:14:13.770Z,18.76
2018-06-09T05:15:13.682Z,18.91
2018-06-09T05:17:06.547Z,18.94
2018-06-09T05:18:06.438Z,18.89
2018-06-09T05:19:59.319Z,19.05
2018-06-09T05:20:59.184Z,19.05
2018-06-09T05:22:52.456Z,19.23
2018-06-09T05:23:52.351Z,19.22
2018-06-09T05:25:45.200Z,19.30
2018-06-09T05:26:45.090Z,19.30
2018-06-09T05:28:37.952Z,19.38
2018-06-09T05:29:37.855Z,19.42
2018-06-09T05:31:30.690Z,19.53
2018-06-09T05:32:30.590Z,19.49
2018-06-09T05:34:23.509Z,19.57
2018-06-09T05:35:23.339Z,19.56
2018-06-09T05:37:16.694Z,19.63
2018-06-09T05:38:16.087Z,19.70
2018-06-09T05:40:08.961Z,19.82
2018-06-09T05:41:08.848Z,19.78
2018-06-09T05:43:01.685Z,20.00
2018-06-09T05:44:01.588Z,20.04
2018-06-09T05:45:54.461Z,20.12
2018-06-09T05:46:54.342Z,20.17
2018-06-09T05:48:47.228Z,20.30
2018-06-09T05:49:47.087Z,20.30
2018-06-09T05:51:39.944Z,20.41
2018-06-09T05:52:39.837Z,20.39
2018-06-09T05:54:32.748Z,20.64
2018-06-09T05:55:32.619Z,20.64
2018-06-09T05:57:25.446Z,20.56
2018-06-09T05:58:25.340Z,20.58
2018-06-09T06:00:18.247Z,20.65
2018-06-09T06:01:18.090Z,20.68
2018-06-09T06:03:11.439Z,20.67
2018-06-09T06:04:11.360Z,20.70
2018-06-09T06:06:04.208Z,20.82
2018-06-09T06:07:04.109Z,20.80
2018-06-09T06:08:56.959Z,20.85
2018-06-09T06:09:56.846Z,20.88
2018-06-09T06:11:49.691Z,20.93
2018-06-09T06:12:49.601Z,20.97
2018-06-09T06:14:42.507Z,21.07
2018-06-09T06:15:42.346Z,21.14
2018-06-09T06:17:35.201Z,21.25
2018-06-09T06:18:35.099Z,21.35
2018-06-09T06:20:27.950Z,21.43
2018-06-09T06:21:27.861Z,21.47
2018-06-09T06:23:20.701Z,21.55
2018-06-09T06:24:20.596Z,21.69
2018-06-09T06:26:13.473Z,21.73
2018-06-09T06:27:13.348Z,21.80
2018-06-09T06:29:06.214Z,21.82
2018-06-09T06:30:06.108Z,21.85
2018-06-09T06:31:59.015Z,22.00
2018-06-09T06:32:58.850Z,22.00
2018-06-09T06:34:51.713Z,22.15
2018-06-09T06:35:51.597Z,22.25
2018-06-09T06:37:44.460Z,22.19
2018-06-09T06:38:44.353Z,22.31
2018-06-09T06:40:37.204Z,22.37
2018-06-09T06:41:37.098Z,22.46
2018-06-09T06:43:29.935Z,22.48
2018-06-09T06:44:29.856Z,22.52
2018-06-09T06:46:22.709Z,22.64
2018-06-09T06:47:22.614Z,22.66
2018-06-09T06:49:15.447Z,22.67
2018-06-09T06:50:15.361Z,22.80
2018-06-09T06:52:08.185Z,22.71
2018-06-09T06:53:08.130Z,22.73
2018-06-09T06:55:00.946Z,22.91
2018-06-09T06:56:00.874Z,22.89
2018-06-09T06:57:53.678Z,22.95
2018-06-09T06:58:53.602Z,22.96
2018-06-09T07:00:46.446Z,22.93
2018-06-09T07:01:46.351Z,23.03
2018-06-09T07:03:39.183Z,23.01
2018-06-09T07:04:39.087Z,23.22
2018-06-09T07:06:31.943Z,23.31
2018-06-09T07:07:31.852Z,23.25
2018-06-09T07:09:24.739Z,23.54
2018-06-09T07:10:24.608Z,23.44
2018-06-09T07:12:17.450Z,23.44
2018-06-09T07:13:17.350Z,23.45
2018-06-09T07:15:10.203Z,23.61
2018-06-09T07:16:10.108Z,23.56
2018-06-09T07:18:02.945Z,23.71
2018-06-09T07:19:02.836Z,23.82
2018-06-09T07:20:55.706Z,23.88
2018-06-09T07:21:55.594Z,24.00
2018-06-09T07:23:48.427Z,24.07
2018-06-09T07:24:48.339Z,24.19
2018-06-09T07:26:41.214Z,24.21
2018-06-09T07:27:41.091Z,24.37
2018-06-09T07:29:33.919Z,24.40
2018-06-09T07:30:33.836Z,24.47
2018-06-09T07:32:27.237Z,24.62
2018-06-09T07:33:27.120Z,24.68
2018-06-09T07:35:19.940Z,24.78
2018-06-09T07:36:19.863Z,24.75
2018-06-09T07:38:12.715Z,24.85
2018-06-09T07:39:12.627Z,24.82
2018-06-09T07:41:05.461Z,24.93
2018-06-09T07:42:05.384Z,25.03
2018-06-09T07:43:58.251Z,25.21
2018-06-09T07:44:58.126Z,25.30
2018-06-09T07:46:50.994Z,25.41
2018-06-09T07:47:50.906Z,25.49
2018-06-09T07:49:43.723Z,25.74
2018-06-09T07:50:43.628Z,25.77
2018-06-09T07:52:36.430Z,25.73
2018-06-09T07:53:36.389Z,25.88
2018-06-09T07:55:29.230Z,25.85
2018-06-09T07:56:29.094Z,26.04
2018-06-09T07:58:21.940Z,26.03
2018-06-09T07:59:21.853Z,25.95
2018-06-09T08:01:14.710Z,26.11
2018-06-09T08:02:14.612Z,26.07
2018-06-09T08:04:07.477Z,25.98
2018-06-09T08:05:07.342Z,25.90
2018-06-09T08:07:00.247Z,25.96
2018-06-09T08:08:00.109Z,25.88
2018-06-09T08:09:52.954Z,25.98
2018-06-09T08:10:52.853Z,25.86
2018-06-09T08:12:45.712Z,26.21
2018-06-09T08:13:45.602Z,26.33
2018-06-09T08:15:38.438Z,26.57
2018-06-09T08:16:38.352Z,26.65
2018-06-09T08:18:31.217Z,26.80
2018-06-09T08:19:31.139Z,26.90
2018-06-09T08:21:23.930Z,26.95
2018-06-09T08:22:23.888Z,26.97
2018-06-09T08:24:17.224Z,27.05
2018-06-09T08:25:17.008Z,26.98
2018-06-09T08:27:09.842Z,27.13
2018-06-09T08:28:09.759Z,27.16
2018-06-09T08:30:02.624Z,27.16
2018-06-09T08:31:02.507Z,27.15
2018-06-09T08:32:55.368Z,27.30
2018-06-09T08:33:55.249Z,27.25
2018-06-09T08:35:48.139Z,27.26
2018-06-09T08:36:48.009Z,27.23
2018-06-09T08:38:41.264Z,27.15
2018-06-09T08:39:41.179Z,27.12
2018-06-09T08:41:34.066Z,27.01
2018-06-09T08:42:33.921Z,27.17
2018-06-09T08:44:26.751Z,27.38
2018-06-09T08:45:26.666Z,27.47
2018-06-09T08:47:19.530Z,27.64
2018-06-09T08:48:19.413Z,27.66
2018-06-09T08:50:12.257Z,27.69
2018-06-09T08:51:12.206Z,27.78
2018-06-09T08:53:05.540Z,27.72
2018-06-09T08:54:05.422Z,27.80
2018-06-09T08:55:58.785Z,27.69
2018-06-09T08:56:58.263Z,27.66
2018-06-09T08:58:51.027Z,27.47
2018-06-09T08:59:50.962Z,27.44
2018-06-09T09:01:43.819Z,27.52
2018-06-09T09:02:43.684Z,27.54
2018-06-09T09:04:36.534Z,27.32
2018-06-09T09:05:36.460Z,27.20
2018-06-09T09:07:29.285Z,27.17
2018-06-09T09:08:29.185Z,27.25
2018-06-09T09:10:22.037Z,27.12
2018-06-09T09:11:21.951Z,27.03
2018-06-09T09:13:14.754Z,27.05
2018-06-09T09:14:14.674Z,27.13
2018-06-09T09:16:07.728Z,27.19
2018-06-09T09:17:07.443Z,27.26
2018-06-09T09:19:00.271Z,27.34
2018-06-09T09:20:00.179Z,27.44
2018-06-09T09:21:53.038Z,27.83
2018-06-09T09:22:53.467Z,27.79
2018-06-09T09:24:45.762Z,27.68
2018-06-09T09:25:45.674Z,27.72
2018-06-09T09:27:38.547Z,27.78
2018-06-09T09:28:38.419Z,27.95
2018-06-09T09:30:31.256Z,27.94
2018-06-09T09:31:31.197Z,28.01
2018-06-09T09:33:24.272Z,28.07
2018-06-09T09:34:24.019Z,28.06
2018-06-09T09:36:16.890Z,27.95
2018-06-09T09:37:16.792Z,27.98
2018-06-09T09:39:09.635Z,27.97
2018-06-09T09:40:09.519Z,27.97
2018-06-09T09:42:02.376Z,27.80
2018-06-09T09:43:02.283Z,27.93
2018-06-09T09:45:58.237Z,27.80
2018-06-09T09:47:52.075Z,27.83
2018-06-09T09:48:51.987Z,27.60
2018-06-09T09:50:44.834Z,27.68
2018-06-09T09:51:44.856Z,27.70
2018-06-09T09:53:37.579Z,27.52
2018-06-09T09:54:37.481Z,27.45
2018-06-09T09:56:30.419Z,27.19
2018-06-09T09:57:30.315Z,27.20
2018-06-09T09:59:23.565Z,27.04
2018-06-09T10:00:23.508Z,26.97
2018-06-09T10:02:16.345Z,27.10
2018-06-09T10:03:16.246Z,27.15
2018-06-09T10:05:09.170Z,27.04
2018-06-09T10:06:09.073Z,27.05
2018-06-09T10:08:01.955Z,27.04
2018-06-09T10:09:01.839Z,27.01
2018-06-09T10:10:54.689Z,26.93
2018-06-09T10:11:54.606Z,26.89
2018-06-09T10:13:48.092Z,26.95
2018-06-09T10:14:47.332Z,26.86
2018-06-09T10:16:40.696Z,26.85
2018-06-09T10:17:40.637Z,26.85
2018-06-09T10:19:33.428Z,26.76
2018-06-09T10:20:33.345Z,26.82
2018-06-09T10:22:26.220Z,26.98
2018-06-09T10:23:26.107Z,26.88
2018-06-09T10:25:18.944Z,26.95
2018-06-09T10:26:18.852Z,26.97
2018-06-09T10:28:11.710Z,26.90
2018-06-09T10:29:11.592Z,27.04
2018-06-09T10:31:04.443Z,27.01
2018-06-09T10:32:04.342Z,27.15
2018-06-09T10:33:57.215Z,27.13
2018-06-09T10:34:57.106Z,27.25
2018-06-09T10:36:49.935Z,27.17
2018-06-09T10:37:49.856Z,27.27
2018-06-09T10:39:42.711Z,27.20
2018-06-09T10:40:42.598Z,27.23
2018-06-09T10:42:35.445Z,27.32
2018-06-09T10:43:35.336Z,27.27
2018-06-09T10:45:28.233Z,27.12
2018-06-09T10:46:28.109Z,27.17
2018-06-09T10:48:35.989Z,27.22
2018-06-09T10:50:38.147Z,27.26
2018-06-09T10:51:38.069Z,27.15
2018-06-09T10:53:30.938Z,27.19
2018-06-09T10:54:30.818Z,27.08
2018-06-09T10:56:23.696Z,26.80
2018-06-09T10:57:23.604Z,26.65
2018-06-09T10:59:16.417Z,26.61
2018-06-09T11:00:16.305Z,26.53
2018-06-09T11:02:09.173Z,26.57
2018-06-09T11:03:09.054Z,26.49
2018-06-09T11:05:01.882Z,26.45
2018-06-09T11:06:01.805Z,26.49
2018-06-09T11:07:54.662Z,26.26
2018-06-09T11:08:54.550Z,26.27
2018-06-09T11:10:47.404Z,26.10
2018-06-09T11:11:47.315Z,26.12
2018-06-09T11:13:40.159Z,26.10
2018-06-09T11:14:40.057Z,26.01
2018-06-09T11:16:32.892Z,26.00
2018-06-09T11:17:32.818Z,25.93
2018-06-09T11:19:25.664Z,25.88
2018-06-09T11:20:25.547Z,25.88
2018-06-09T11:22:18.400Z,25.85
2018-06-09T11:23:18.298Z,25.77
2018-06-09T11:25:11.148Z,25.67
2018-06-09T11:26:11.057Z,25.63
2018-06-09T11:28:04.409Z,25.64
2018-06-09T11:29:03.797Z,25.68
2018-06-09T11:30:57.069Z,25.66
2018-06-09T11:31:56.968Z,25.75
2018-06-09T11:33:49.819Z,25.89
2018-06-09T11:34:49.717Z,26.19
2018-06-09T11:36:43.048Z,26.63
2018-06-09T11:37:42.971Z,26.78
2018-06-09T11:39:35.849Z,27.12
2018-06-09T11:40:35.716Z,27.30
2018-06-09T11:42:28.565Z,27.72
2018-06-09T11:43:28.461Z,27.95
2018-06-09T11:45:21.312Z,28.30
2018-06-09T11:46:21.217Z,28.46
2018-06-09T11:48:14.463Z,28.83
2018-06-09T11:49:14.376Z,29.02
2018-06-09T11:51:07.225Z,29.07
2018-06-09T11:52:07.129Z,29.25
2018-06-09T11:53:59.990Z,29.22
2018-06-09T11:54:59.898Z,29.39
2018-06-09T11:56:52.763Z,29.34
2018-06-09T11:57:52.625Z,29.39
2018-06-09T11:59:45.504Z,29.50
2018-06-09T12:00:45.379Z,29.47
2018-06-09T12:02:38.230Z,29.59
2018-06-09T12:03:38.125Z,29.59
2018-06-09T12:05:30.999Z,29.36
2018-06-09T12:06:30.870Z,29.27
2018-06-09T12:08:23.708Z,29.41
2018-06-09T12:09:23.663Z,29.41
2018-06-09T12:11:16.551Z,29.62
2018-06-09T12:12:16.373Z,29.62
2018-06-09T12:14:09.206Z,29.81
2018-06-09T12:15:09.125Z,30.00
2018-06-09T12:17:01.970Z,30.10
2018-06-09T12:18:01.878Z,30.21
2018-06-09T12:19:54.702Z,30.07
2018-06-09T12:20:54.647Z,30.20
2018-06-09T12:22:47.469Z,30.33
2018-06-09T12:23:47.383Z,30.45
2018-06-09T12:25:40.204Z,30.39
2018-06-09T12:26:40.123Z,30.46
2018-06-09T12:28:32.979Z,30.45
2018-06-09T12:29:32.875Z,30.64
2018-06-09T12:31:25.723Z,30.78
2018-06-09T12:32:25.637Z,30.88
2018-06-09T12:34:19.003Z,31.08
2018-06-09T12:35:18.377Z,30.99
2018-06-09T12:37:11.233Z,31.22
2018-06-09T12:38:11.120Z,31.26
2018-06-09T12:40:03.965Z,31.56
2018-06-09T12:41:03.884Z,31.66
2018-06-09T12:42:56.715Z,31.68
2018-06-09T12:43:56.617Z,31.79
2018-06-09T12:45:49.520Z,31.95
2018-06-09T12:46:49.379Z,31.86
2018-06-09T12:48:42.249Z,31.89
2018-06-09T12:49:42.116Z,32.01
2018-06-09T12:51:35.038Z,32.06
2018-06-09T12:52:34.869Z,31.95
2018-06-09T12:54:27.727Z,31.78
2018-06-09T12:55:27.617Z,31.75
2018-06-09T12:57:20.460Z,31.75
2018-06-09T12:58:20.378Z,31.78
2018-06-09T13:00:13.232Z,32.13
2018-06-09T13:01:13.120Z,32.14
2018-06-09T13:03:06.009Z,32.09
2018-06-09T13:04:05.866Z,32.14
2018-06-09T13:05:59.758Z,32.11
2018-06-09T13:06:59.655Z,32.32
2018-06-09T13:08:53.001Z,32.41
2018-06-09T13:09:52.903Z,32.42
2018-06-09T13:11:51.524Z,32.26
2018-06-09T13:12:49.378Z,32.26
2018-06-09T13:14:42.750Z,32.24
2018-06-09T13:15:42.608Z,32.35
2018-06-09T13:17:35.434Z,32.64
2018-06-09T13:18:35.350Z,32.79
2018-06-09T13:20:28.346Z,32.75
2018-06-09T13:21:28.097Z,32.73
2018-06-09T13:23:20.937Z,32.72
2018-06-09T13:24:20.845Z,32.70
2018-06-09T13:26:13.710Z,32.43
2018-06-09T13:27:13.607Z,32.41
2018-06-09T13:29:06.430Z,32.60
2018-06-09T13:30:06.360Z,32.64
2018-06-09T13:31:59.243Z,32.46
2018-06-09T13:32:59.103Z,32.28
2018-06-09T13:34:51.950Z,31.70
2018-06-09T13:35:51.886Z,31.34
2018-06-09T13:37:44.692Z,30.88
2018-06-09T13:38:44.641Z,30.83
2018-06-09T13:40:37.443Z,31.01
2018-06-09T13:41:37.366Z,31.19
2018-06-09T13:43:30.251Z,31.48
2018-06-09T13:44:30.091Z,31.67
2018-06-09T13:46:23.444Z,31.76
2018-06-09T13:47:23.348Z,31.79
2018-06-09T13:49:16.184Z,31.97
2018-06-09T13:50:16.119Z,31.91
2018-06-09T13:52:09.470Z,31.86
2018-06-09T13:53:09.371Z,31.68
2018-06-09T13:55:02.242Z,31.44
2018-06-09T13:56:02.115Z,31.70
2018-06-09T13:57:54.961Z,31.67
2018-06-09T13:58:54.880Z,31.45
2018-06-09T14:00:47.720Z,31.74
2018-06-09T14:01:47.620Z,31.76
2018-06-09T14:03:40.467Z,32.08
2018-06-09T14:04:40.361Z,32.19
2018-06-09T14:06:33.190Z,32.41
2018-06-09T14:07:33.119Z,32.46
2018-06-09T14:09:25.987Z,32.87
2018-06-09T14:10:25.868Z,33.19
2018-06-09T14:12:18.715Z,33.36
2018-06-09T14:13:18.659Z,33.49
2018-06-09T14:15:11.490Z,33.51
2018-06-09T14:16:11.361Z,33.20
2018-06-09T14:18:04.252Z,33.03
2018-06-09T14:19:04.118Z,32.91
2018-06-09T14:20:57.480Z,32.72
2018-06-09T14:21:57.410Z,32.60
2018-06-09T14:23:50.251Z,32.65
2018-06-09T14:24:50.123Z,32.79
2018-06-09T14:26:42.986Z,32.76
2018-06-09T14:27:42.873Z,32.76
2018-06-09T14:29:35.727Z,32.60
2018-06-09T14:30:35.631Z,32.57
2018-06-09T14:32:28.459Z,32.38
2018-06-09T14:33:28.382Z,31.99
2018-06-09T14:35:21.216Z,31.30
2018-06-09T14:36:21.125Z,31.24
2018-06-09T14:38:13.956Z,31.44
2018-06-09T14:39:13.879Z,31.44
2018-06-09T14:41:06.731Z,31.76
2018-06-09T14:42:06.622Z,31.87
2018-06-09T14:43:59.961Z,32.57
2018-06-09T14:44:59.885Z,32.95
2018-06-09T14:46:52.724Z,33.66
2018-06-09T14:47:52.652Z,33.88
2018-06-09T14:49:45.476Z,33.97
2018-06-09T14:50:45.408Z,34.03
2018-06-09T14:52:38.232Z,34.62
2018-06-09T14:53:38.130Z,34.80
2018-06-09T14:55:30.976Z,35.01
2018-06-09T14:56:30.900Z,34.97
2018-06-09T14:58:23.710Z,34.97
2018-06-09T14:59:23.638Z,35.05
2018-06-09T15:01:16.478Z,35.26
2018-06-09T15:02:16.376Z,35.36
2018-06-09T15:04:09.274Z,35.53
2018-06-09T15:05:09.130Z,35.41
2018-06-09T15:07:01.975Z,35.39
2018-06-09T15:08:01.920Z,35.66
2018-06-09T15:09:54.755Z,35.90
2018-06-09T15:10:54.632Z,35.88
2018-06-09T15:12:47.465Z,35.97
2018-06-09T15:13:47.391Z,36.13
2018-06-09T15:15:40.249Z,36.44
2018-06-09T15:16:40.145Z,36.71
2018-06-09T15:18:33.008Z,36.91
2018-06-09T15:19:32.897Z,36.91
2018-06-09T15:21:25.736Z,36.69
2018-06-09T15:22:25.640Z,36.70
2018-06-09T15:24:18.452Z,37.25
2018-06-09T15:25:18.389Z,37.38
2018-06-09T15:27:11.259Z,37.69
2018-06-09T15:28:11.161Z,37.55
2018-06-09T15:30:03.985Z,37.77
2018-06-09T15:31:03.880Z,37.62
2018-06-09T15:32:56.711Z,37.67
2018-06-09T15:33:56.639Z,37.82
2018-06-09T15:35:49.543Z,36.36
2018-06-09T15:36:49.509Z,36.15
2018-06-09T15:38:42.947Z,36.20
2018-06-09T15:39:42.347Z,36.35
2018-06-09T15:41:34.972Z,37.23
2018-06-09T15:42:34.871Z,37.50
2018-06-09T15:44:28.302Z,36.44
2018-06-09T15:45:28.213Z,35.53
2018-06-09T15:47:20.976Z,34.53
2018-06-09T15:48:20.889Z,34.23
2018-06-09T15:50:13.780Z,33.74
2018-06-09T15:51:13.642Z,33.47
2018-06-09T15:53:06.464Z,33.09
2018-06-09T15:54:06.386Z,33.06
2018-06-09T15:55:59.758Z,32.99
2018-06-09T15:56:59.657Z,32.76
2018-06-09T15:58:52.473Z,32.54
2018-06-09T15:59:52.399Z,32.42
2018-06-09T16:01:45.233Z,32.20
2018-06-09T16:02:45.151Z,32.20
2018-06-09T16:04:37.981Z,31.86
2018-06-09T16:05:37.920Z,31.75
2018-06-09T16:07:30.733Z,31.59
2018-06-09T16:08:30.651Z,31.41
2018-06-09T16:10:23.498Z,31.20
2018-06-09T16:11:23.418Z,31.24
2018-06-09T16:13:16.255Z,31.07
2018-06-09T16:14:16.161Z,30.93
2018-06-09T16:16:08.976Z,30.77
2018-06-09T16:17:08.920Z,30.77
2018-06-09T16:19:01.745Z,30.70
2018-06-09T16:20:01.660Z,30.59
2018-06-09T16:21:54.488Z,30.52
2018-06-09T16:22:54.407Z,30.45
2018-06-09T16:24:47.222Z,30.35
2018-06-09T16:25:47.159Z,30.28
2018-06-09T16:27:39.991Z,30.21
2018-06-09T16:28:39.902Z,30.13
2018-06-09T16:30:32.724Z,30.00
2018-06-09T16:31:32.638Z,29.77
2018-06-09T16:33:26.003Z,29.61
2018-06-09T16:34:25.901Z,29.43
2018-06-09T16:36:18.765Z,29.44
2018-06-09T16:37:18.653Z,29.22
2018-06-09T16:39:11.494Z,29.09
2018-06-09T16:40:11.401Z,28.91
2018-06-09T16:42:04.247Z,28.84
2018-06-09T16:43:04.167Z,28.81
2018-06-09T16:44:56.998Z,28.90
2018-06-09T16:45:56.907Z,28.81
2018-06-09T16:47:49.755Z,28.66
2018-06-09T16:48:49.650Z,28.66
2018-06-09T16:50:42.477Z,28.61
2018-06-09T16:51:42.397Z,28.49
2018-06-09T16:53:35.242Z,28.30
2018-06-09T16:54:35.199Z,28.32
2018-06-09T16:56:28.030Z,28.42
2018-06-09T16:57:27.920Z,28.47
2018-06-09T16:59:20.764Z,28.54
2018-06-09T17:00:20.657Z,28.61
2018-06-09T17:02:14.017Z,28.68
2018-06-09T17:03:13.933Z,28.46
2018-06-09T17:05:06.752Z,28.32
2018-06-09T17:06:06.671Z,28.30
2018-06-09T17:07:59.497Z,28.35
2018-06-09T17:08:59.412Z,28.28
2018-06-09T17:10:52.287Z,28.43
2018-06-09T17:11:52.152Z,28.40
2018-06-09T17:13:45.020Z,28.71
2018-06-09T17:14:44.908Z,28.87
2018-06-09T17:16:37.750Z,29.44
2018-06-09T17:17:37.663Z,29.62
2018-06-09T17:19:31.016Z,29.54
2018-06-09T17:20:30.912Z,29.70
2018-06-09T17:22:23.763Z,30.08
2018-06-09T17:23:23.665Z,30.32
2018-06-09T17:25:16.505Z,30.71
2018-06-09T17:26:16.415Z,30.83
2018-06-09T17:28:09.264Z,30.92
2018-06-09T17:29:09.207Z,30.86
2018-06-09T17:31:01.995Z,31.15
2018-06-09T17:32:01.916Z,31.20
2018-06-09T17:33:54.787Z,31.29
2018-06-09T17:34:54.683Z,31.34
2018-06-09T17:36:47.527Z,31.33
2018-06-09T17:37:47.426Z,31.20
2018-06-09T17:39:40.767Z,31.05
2018-06-09T17:40:40.679Z,31.22
2018-06-09T17:42:33.552Z,31.75
2018-06-09T17:43:33.430Z,32.20
2018-06-09T17:45:27.200Z,33.07
2018-06-09T17:46:27.099Z,33.45
2018-06-09T17:48:19.965Z,33.93
2018-06-09T17:49:19.860Z,34.07
2018-06-09T17:51:12.685Z,34.16
2018-06-09T17:52:12.595Z,34.29
2018-06-09T17:54:05.756Z,34.47
2018-06-09T17:55:05.902Z,34.30
2018-06-09T17:56:58.276Z,33.86
2018-06-09T17:57:58.097Z,33.69
2018-06-09T17:59:50.945Z,33.09
2018-06-09T18:00:50.846Z,32.79
2018-06-09T18:02:43.693Z,32.11
2018-06-09T18:03:43.602Z,31.90
2018-06-09T18:05:36.422Z,31.44
2018-06-09T18:06:36.345Z,31.32
2018-06-09T18:08:29.195Z,30.93
2018-06-09T18:09:29.109Z,30.68
2018-06-09T18:11:21.945Z,30.20
2018-06-09T18:12:21.881Z,29.95
2018-06-09T18:14:14.692Z,29.65
2018-06-09T18:15:14.594Z,29.56
2018-06-09T18:17:07.459Z,29.28
2018-06-09T18:18:07.360Z,29.04
2018-06-09T18:20:00.170Z,28.90
2018-06-09T18:21:00.098Z,28.87
2018-06-09T18:22:52.994Z,28.79
2018-06-09T18:23:52.845Z,28.69
2018-06-09T18:25:45.670Z,28.54
2018-06-09T18:26:45.596Z,28.46
2018-06-09T18:28:38.449Z,28.30
2018-06-09T18:29:38.337Z,28.10
2018-06-09T18:31:31.172Z,28.01
2018-06-09T18:32:31.104Z,27.87
2018-06-09T18:34:23.955Z,27.90